Time;durP1;ratioP1;P1;durP2;ratioP2;P2;SDS_P1;SDS_P2;PMS_P1;PMS_P2;Temp;Humidity;BMP_temperature;BMP_pressure;BME280_temperature;BME280_humidity;BME280_pressure;Samples;Min_cycle;Max_cycle;Signal;HPM_P1;HPM_P2
2021/12/25 00:00:35;;;;;;;55.43;28.77;;;;;;;0.54;79.57;96822.59;6269734;22;20252;-70
2021/12/25 00:03:02;;;;;;;53.03;27.73;;;;;;;0.62;79.01;96825.91;6268828;22;20551;-70
2021/12/25 00:05:31;;;;;;;44.07;26.10;;;;;;;0.64;79.56;96820.78;6269371;22;20636;-72
2021/12/25 00:07:58;;;;;;;38.73;23.67;;;;;;;0.56;79.37;96825.13;6269385;22;20176;-68
2021/12/25 00:10:25;;;;;;;43.93;25.13;;;;;;;0.54;79.40;96806.47;6269339;22;20175;-68
2021/12/25 00:12:54;;;;;;;39.97;22.40;;;;;;;0.54;80.33;96824.31;6242334;22;20219;-68
2021/12/25 00:15:21;;;;;;;44.77;26.23;;;;;;;0.56;80.24;96825.13;6242507;22;20160;-71
2021/12/25 00:17:48;;;;;;;47.93;25.57;;;;;;;0.49;79.92;96814.19;6269571;22;20565;-69
2021/12/25 00:20:16;;;;;;;45.83;24.63;;;;;;;0.53;79.59;96808.19;6269409;22;20203;-70
2021/12/25 00:22:43;;;;;;;45.07;26.10;;;;;;;0.56;79.65;96797.09;6269411;22;20175;-69
2021/12/25 00:25:11;;;;;;;45.73;23.50;;;;;;;0.53;78.91;96808.19;6242076;22;20168;-71
2021/12/25 00:28:04;;;;;;;36.60;20.83;;;;;;;0.60;79.13;96807.25;6269170;22;20172;-67
2021/12/25 00:33:04;;;;;;;38.67;20.57;;;;;;;0.36;80.84;96801.56;6269129;22;20188;-70
2021/12/25 00:35:32;;;;;;;37.53;21.63;;;;;;;0.36;80.95;96809.22;6241996;22;20214;-68
2021/12/25 00:37:59;;;;;;;38.17;21.47;;;;;;;0.24;80.70;96801.69;6269548;22;20172;-70
2021/12/25 00:40:28;;;;;;;37.00;21.27;;;;;;;0.32;81.04;96797.38;6216470;22;20168;-69
2021/12/25 00:42:55;;;;;;;42.47;23.20;;;;;;;0.34;80.44;96808.38;6268929;22;20200;-69
2021/12/25 00:45:22;;;;;;;39.13;22.87;;;;;;;0.19;80.63;96806.81;6269176;22;20165;-69
2021/12/25 00:47:50;;;;;;;38.23;22.80;;;;;;;0.19;79.72;96811.06;6269152;22;20275;-70
2021/12/25 00:50:17;;;;;;;43.20;24.77;;;;;;;0.05;80.83;96807.81;6242204;22;20160;-69
2021/12/25 00:52:44;;;;;;;37.60;23.97;;;;;;;0.02;81.01;96806.16;6241762;22;20597;-67
2021/12/25 00:55:11;;;;;;;39.93;23.37;;;;;;;0.04;81.31;96812.06;6269064;22;20175;-68
2021/12/25 00:57:39;;;;;;;45.63;24.43;;;;;;;0.14;81.46;96818.78;6269047;22;20198;-68
2021/12/25 01:00:10;;;;;;;44.30;25.13;;;;;;;0.17;80.18;96815.31;6268835;22;20569;-68
2021/12/25 01:02:40;;;;;;;44.90;24.40;;;;;;;0.10;81.63;96817.13;6242091;22;20157;-70
2021/12/25 01:05:12;;;;;;;38.63;23.70;;;;;;;0.06;81.18;96806.97;6241853;22;20643;-70
2021/12/25 01:07:40;;;;;;;39.57;22.27;;;;;;;-0.02;81.75;96802.78;6241960;22;20203;-67
2021/12/25 01:10:16;;;;;;;33.30;20.33;;;;;;;-0.06;81.56;96807.88;6241844;22;20251;-69
2021/12/25 01:15:44;;;;;;;29.93;18.20;;;;;;;-0.22;82.65;96797.00;6241931;22;20175;-68
2021/12/25 01:18:50;;;;;;;28.57;16.47;;;;;;;-0.24;83.65;96795.31;6241950;22;20222;-70
2021/12/25 01:32:10;;;;;;;23.77;14.33;;;;;;;-0.09;83.67;96790.13;6241614;22;20196;-66
2021/12/25 01:49:10;;;;;;;17.10;10.40;;;;;;;0.56;82.08;96777.59;6241640;22;20171;-68
2021/12/25 01:51:38;;;;;;;17.10;9.90;;;;;;;0.62;80.88;96781.75;6269483;22;20192;-67
2021/12/25 01:54:05;;;;;;;16.20;10.83;;;;;;;0.65;81.24;96779.19;6243826;22;20172;-66
2021/12/25 01:56:33;;;;;;;15.80;10.43;;;;;;;0.64;81.29;96788.53;6270763;22;20168;-68
2021/12/25 01:59:00;;;;;;;15.80;10.93;;;;;;;0.70;82.24;96790.19;6243578;22;20180;-68
2021/12/25 02:01:27;;;;;;;14.77;9.30;;;;;;;0.78;81.53;96796.03;6243545;22;20169;-69
2021/12/25 02:03:54;;;;;;;14.90;9.93;;;;;;;0.82;80.37;96787.47;6243548;22;20172;-69
2021/12/25 02:06:26;;;;;;;16.40;9.83;;;;;;;0.82;80.33;96787.47;6243408;22;20280;-68
2021/12/25 02:08:53;;;;;;;14.63;10.03;;;;;;;0.81;80.12;96796.81;6243407;22;20168;-67
2021/12/25 02:11:20;;;;;;;20.17;10.47;;;;;;;0.81;81.36;96791.72;6270624;22;20172;-67
2021/12/25 02:13:48;;;;;;;19.13;10.47;;;;;;;0.74;80.86;96800.28;6243899;22;20180;-67
2021/12/25 02:16:23;;;;;;;17.27;10.47;;;;;;;0.73;81.22;96785.88;6243534;22;20191;-69
2021/12/25 02:19:02;;;;;;;17.63;10.47;;;;;;;0.86;80.83;96796.78;6243308;22;20331;-69
2021/12/25 02:21:37;;;;;;;16.93;10.10;;;;;;;0.91;80.84;96795.00;6270553;22;20642;-70
2021/12/25 02:24:08;;;;;;;21.70;12.27;;;;;;;0.95;81.00;96795.81;6218582;22;20168;-69
2021/12/25 02:26:37;;;;;;;17.30;11.00;;;;;;;0.96;80.55;96792.41;6243205;22;20624;-69
2021/12/25 02:29:04;;;;;;;17.70;11.03;;;;;;;0.89;80.86;96791.63;6243291;22;20218;-68
2021/12/25 02:31:32;;;;;;;17.67;10.73;;;;;;;0.83;80.60;96778.97;6270495;22;20538;-69
2021/12/25 02:33:59;;;;;;;16.93;9.83;;;;;;;0.82;80.95;96787.47;6243005;22;20648;-68
2021/12/25 02:36:26;;;;;;;18.07;10.97;;;;;;;0.80;81.37;96776.47;6270232;22;20187;-70
2021/12/25 02:38:54;;;;;;;18.23;11.20;;;;;;;0.82;80.42;96769.66;6243214;22;20191;-68
2021/12/25 02:41:21;;;;;;;22.13;13.17;;;;;;;0.94;80.24;96792.44;6243177;22;20203;-67
2021/12/25 02:43:50;;;;;;;25.40;14.13;;;;;;;0.68;80.08;96786.81;6243417;22;20167;-70
2021/12/25 02:46:31;;;;;;;25.20;14.10;;;;;;;0.59;80.25;96777.56;6243193;22;20164;-70
2021/12/25 02:48:59;;;;;;;23.40;14.37;;;;;;;0.42;80.38;96796.41;6270155;22;20204;-68
2021/12/25 02:51:26;;;;;;;26.40;14.53;;;;;;;0.47;81.16;96789.59;6243315;22;20184;-68
2021/12/25 02:53:54;;;;;;;28.30;15.57;;;;;;;0.45;80.21;96792.16;6243452;22;20244;-69
2021/12/25 02:56:21;;;;;;;35.73;17.90;;;;;;;0.33;79.66;96799.06;6270116;22;20655;-68
2021/12/25 02:58:48;;;;;;;34.30;18.23;;;;;;;0.26;79.71;96798.28;6243452;22;20612;-68
2021/12/25 03:01:18;;;;;;;32.50;18.87;;;;;;;0.11;80.36;96788.25;6243064;22;20200;-67
2021/12/25 03:03:46;;;;;;;29.43;17.30;;;;;;;0.08;81.78;96817.97;6243071;22;20733;-69
2021/12/25 03:06:13;;;;;;;30.40;18.73;;;;;;;0.04;81.15;96801.03;6269920;22;20632;-70
2021/12/25 03:08:43;;;;;;;31.23;17.83;;;;;;;0.14;82.05;96815.38;6242886;22;20245;-70
2021/12/25 03:11:13;;;;;;;35.20;19.27;;;;;;;0.15;81.12;96819.59;6270187;22;20165;-69
2021/12/25 03:16:16;;;;;;;38.37;21.00;;;;;;;0.18;81.61;96809.41;6242931;22;20169;-68
2021/12/25 03:18:48;;;;;;;37.13;19.70;;;;;;;0.13;81.11;96823.84;6243037;22;20218;-68
2021/12/25 03:21:17;;;;;;;38.30;22.23;;;;;;;0.26;80.91;96827.97;6269880;22;20168;-67
2021/12/25 03:23:47;;;;;;;40.03;21.50;;;;;;;-0.04;81.12;96812.13;6242759;22;20180;-69
2021/12/25 03:26:14;;;;;;;41.97;23.67;;;;;;;-0.08;81.66;96832.50;6269805;22;20168;-69
2021/12/25 03:28:44;;;;;;;42.63;22.57;;;;;;;-0.22;82.76;96825.00;6242651;22;20567;-69
2021/12/25 03:31:19;;;;;;;45.07;22.23;;;;;;;-0.38;81.89;96795.44;6242766;22;20169;-69
2021/12/25 03:33:50;;;;;;;36.67;20.77;;;;;;;-0.15;82.74;96821.56;6242581;22;20671;-69
2021/12/25 03:36:17;;;;;;;37.13;19.93;;;;;;;-0.08;82.22;96829.97;6269715;22;20169;-69
2021/12/25 03:38:45;;;;;;;30.40;18.83;;;;;;;-0.02;82.09;96828.22;6242648;22;20195;-67
2021/12/25 03:41:17;;;;;;;32.60;19.53;;;;;;;0.07;81.49;96823.91;6269409;22;20168;-68
2021/12/25 03:43:45;;;;;;;31.43;18.70;;;;;;;0.06;82.14;96837.50;6269728;22;20173;-68
2021/12/25 03:46:15;;;;;;;28.10;17.20;;;;;;;0.13;82.43;96834.03;6269574;22;20167;-68
2021/12/25 03:59:37;;;;;;;32.10;19.73;;;;;;;0.08;81.00;96853.59;6257411;22;20628;-68
2021/12/25 04:02:12;;;;;;;34.60;19.17;;;;;;;0.10;81.47;96851.91;6257077;22;20161;-67
2021/12/25 04:04:44;;;;;;;39.17;22.67;;;;;;;0.20;81.20;96856.91;6255497;22;20168;-67
2021/12/25 04:08:02;;;;;;;39.17;23.00;;;;;;;0.06;81.82;96851.09;6278254;22;20160;-70
2021/12/25 04:10:02;;;;;;;43.43;22.73;;;;;;;0.19;81.38;96856.88;6254787;22;20549;-69
2021/12/25 04:12:30;;;;;;;33.33;19.90;;;;;;;0.19;80.87;96851.78;6243814;22;20250;-70
2021/12/25 04:14:57;;;;;;;35.43;19.53;;;;;;;0.19;80.22;96846.72;6242099;22;20194;-69
2021/12/25 04:17:24;;;;;;;40.47;22.00;;;;;;;0.05;81.84;96843.44;6242241;22;20172;-67
2021/12/25 04:19:51;;;;;;;37.07;21.87;;;;;;;-0.02;82.20;96858.75;6269569;22;20165;-68
2021/12/25 04:22:27;;;;;;;36.83;21.57;;;;;;;0.02;82.96;96858.75;6217640;22;20743;-70
2021/12/25 04:24:54;;;;;;;36.83;22.07;;;;;;;0.09;81.92;96860.38;6217193;22;20635;-70
2021/12/25 04:27:22;;;;;;;36.37;21.70;;;;;;;0.04;81.38;96851.94;6242613;22;20165;-66
2021/12/25 04:30:01;;;;;;;43.17;23.13;;;;;;;0.10;82.06;96846.81;6242224;22;20769;-69
2021/12/25 05:02:30;;;;;;;25.03;14.27;;;;;;;-0.20;84.06;96874.16;6269109;22;20164;-66
2021/12/25 05:05:24;;;;;;;22.40;13.47;;;;;;;-0.16;84.30;96872.44;6233142;22;20172;-68
2021/12/25 05:08:00;;;;;;;27.50;13.87;;;;;;;-0.29;83.93;96860.69;6241826;22;20160;-70
2021/12/25 05:10:30;;;;;;;22.63;14.13;;;;;;;-0.33;84.57;96861.56;6242019;22;20203;-67
2021/12/25 05:12:58;;;;;;;24.90;15.23;;;;;;;-0.35;84.36;96871.72;6268858;22;20224;-69
2021/12/25 05:15:25;;;;;;;23.90;14.07;;;;;;;-0.33;85.51;96867.47;6268856;22;20169;-69
2021/12/25 05:17:53;;;;;;;20.97;13.83;;;;;;;-0.32;84.87;96864.06;6241852;22;20214;-67
2021/12/25 05:20:22;;;;;;;23.77;14.13;;;;;;;-0.25;85.02;96869.97;6216871;22;20240;-68
2021/12/25 05:22:49;;;;;;;24.93;13.93;;;;;;;-0.14;83.86;96876.66;6241847;22;20179;-67
2021/12/25 05:25:16;;;;;;;22.43;13.10;;;;;;;-0.15;84.30;96874.13;6242555;22;20168;-69
2021/12/25 05:27:57;;;;;;;21.63;14.07;;;;;;;0.02;83.31;96884.19;6243806;22;20565;-70
2021/12/25 05:30:25;;;;;;;35.90;18.87;;;;;;;-0.17;83.37;96891.13;6243885;22;20225;-69
2021/12/25 05:33:10;;;;;;;27.67;17.17;;;;;;;-0.22;84.05;96886.06;6270812;22;20722;-67
2021/12/25 05:35:56;;;;;;;47.50;21.87;;;;;;;-0.25;83.27;96897.97;6270754;22;20165;-68
2021/12/25 05:38:33;;;;;;;54.33;22.13;;;;;;;-0.30;84.45;96892.88;6243665;22;20956;-67
2021/12/25 05:41:14;;;;;;;38.40;20.03;;;;;;;-0.27;84.34;96894.56;6243501;22;20204;-67
2021/12/25 05:43:42;;;;;;;38.63;22.93;;;;;;;-0.50;84.67;96889.63;6243426;22;20164;-67
2021/12/25 05:46:17;;;;;;;47.83;25.97;;;;;;;-0.57;85.26;96889.63;6243951;22;20163;-67
2021/12/25 05:48:45;;;;;;;57.77;31.87;;;;;;;-0.91;86.11;96883.88;6243570;22;20169;-69
2021/12/25 05:51:29;;;;;;;44.87;26.90;;;;;;;-0.69;85.92;96893.09;6243614;22;20206;-69
2021/12/25 05:54:19;;;;;;;53.40;30.50;;;;;;;-0.48;85.71;96897.25;6270584;22;20242;-69
2021/12/25 05:57:09;;;;;;;48.60;28.70;;;;;;;-0.38;84.88;96887.00;6226726;22;20176;-67
2021/12/25 05:59:56;;;;;;;82.10;39.33;;;;;;;-0.37;84.19;96898.84;6270244;22;20662;-69
2021/12/25 06:02:41;;;;;;;69.13;34.03;;;;;;;-0.31;84.30;96896.28;6270772;22;20175;-69
2021/12/25 06:05:24;;;;;;;107.97;50.40;;;;;;;-0.25;84.28;96908.13;6243422;22;20183;-69
2021/12/25 06:07:51;;;;;;;62.17;32.10;;;;;;;-0.09;83.44;96907.19;6243555;22;20160;-69
2021/12/25 06:10:18;;;;;;;65.07;34.87;;;;;;;-0.08;82.63;96908.84;6243512;22;20169;-69
2021/12/25 06:12:53;;;;;;;75.53;39.07;;;;;;;0.00;82.63;96913.03;6270278;22;20192;-69
2021/12/25 06:15:22;;;;;;;97.50;47.37;;;;;;;-0.03;82.41;96905.44;6243605;22;20200;-68
2021/12/25 06:18:01;;;;;;;82.50;39.97;;;;;;;-0.20;83.64;96917.41;6242966;22;20179;-69
2021/12/25 06:20:48;;;;;;;66.23;36.03;;;;;;;-0.35;83.99;96903.97;6269618;22;20173;-69
2021/12/25 06:23:38;;;;;;;82.40;43.50;;;;;;;-0.30;83.73;96913.25;6212558;22;20177;-69
2021/12/25 06:26:44;;;;;;;69.87;40.17;;;;;;;-0.20;83.42;96919.09;6270161;22;20163;-68
2021/12/25 06:29:37;;;;;;;56.17;30.93;;;;;;;-0.17;82.75;96917.41;6265241;22;20176;-69
2021/12/25 06:32:22;;;;;;;51.30;28.80;;;;;;;-0.03;82.43;96930.88;6270011;22;20595;-66
2021/12/25 06:35:25;;;;;;;58.60;31.83;;;;;;;0.08;82.26;96909.59;6176091;23;20174;-68
2021/12/25 06:38:16;;;;;;;64.87;35.53;;;;;;;0.18;81.27;96912.06;6240154;22;20168;-70
2021/12/25 06:40:53;;;;;;;69.00;38.20;;;;;;;0.24;80.89;96926.44;6243078;22;20171;-68
2021/12/25 06:43:20;;;;;;;80.17;41.63;;;;;;;0.25;81.56;96933.25;6212463;23;20166;-69
2021/12/25 06:45:47;;;;;;;82.03;40.03;;;;;;;0.14;81.43;96943.50;6187172;23;20252;-68
2021/12/25 06:48:16;;;;;;;86.33;45.27;;;;;;;0.18;82.45;96954.50;6212276;23;20241;-69
2021/12/25 06:51:21;;;;;;;80.27;44.37;;;;;;;0.32;81.44;96939.97;6175159;23;20217;-69
2021/12/25 06:54:07;;;;;;;94.47;46.33;;;;;;;0.30;81.14;96945.09;6173643;23;20280;-69
2021/12/25 06:56:49;;;;;;;85.80;45.00;;;;;;;0.33;80.95;96934.03;6193580;23;20256;-67
2021/12/25 06:59:22;;;;;;;109.73;53.83;;;;;;;0.36;80.42;96941.63;6187717;23;20173;-67
2021/12/25 07:01:50;;;;;;;97.73;49.10;;;;;;;0.27;80.25;96946.81;6211430;23;20206;-67
2021/12/25 07:04:51;;;;;;;101.00;49.47;;;;;;;0.41;80.26;96938.19;6187877;23;20181;-69
2021/12/25 07:07:44;;;;;;;92.63;46.30;;;;;;;0.54;79.83;96951.66;6203441;23;20180;-68
2021/12/25 07:10:25;;;;;;;88.17;47.87;;;;;;;0.65;80.77;96952.44;6211720;23;20173;-69
2021/12/25 07:13:07;;;;;;;93.37;46.80;;;;;;;0.65;79.88;96950.75;6211820;23;20227;-69
2021/12/25 07:15:38;;;;;;;84.00;42.93;;;;;;;0.86;79.15;96965.00;6212046;23;20176;-70
2021/12/25 07:18:44;;;;;;;89.37;46.33;;;;;;;1.02;79.60;96950.38;6116232;23;20311;-69
2021/12/25 07:21:34;;;;;;;57.67;32.73;;;;;;;1.18;78.15;96949.34;6089096;23;20622;-70
2021/12/25 07:24:21;;;;;;;56.63;32.63;;;;;;;1.29;78.49;96980.69;6169231;23;20446;-68
2021/12/25 07:27:11;;;;;;;54.70;31.27;;;;;;;1.07;78.78;96995.34;6211201;23;20169;-67
2021/12/25 07:29:50;;;;;;;45.77;29.77;;;;;;;1.11;79.60;96986.84;6238273;23;20718;-69
2021/12/25 07:32:17;;;;;;;55.47;31.50;;;;;;;1.17;78.24;96991.88;6238463;23;20170;-67
2021/12/25 07:34:47;;;;;;;60.00;35.80;;;;;;;1.25;79.33;96985.00;6238598;23;20947;-68
2021/12/25 07:37:15;;;;;;;65.80;34.23;;;;;;;1.21;79.35;96980.78;6238384;23;20165;-69
2021/12/25 07:39:43;;;;;;;66.83;35.20;;;;;;;1.20;79.10;96985.88;6238067;23;20188;-66
2021/12/25 07:42:11;;;;;;;54.90;32.00;;;;;;;1.30;79.07;96998.53;6253558;22;20224;-67
2021/12/25 07:45:15;;;;;;;52.07;30.60;;;;;;;1.39;79.90;96993.34;6226123;22;20179;-66
2021/12/25 07:47:48;;;;;;;54.07;31.73;;;;;;;1.35;80.04;96985.72;6268704;22;20164;-67
2021/12/25 07:50:15;;;;;;;49.27;28.77;;;;;;;1.32;80.78;96978.94;6241625;22;20168;-66
2021/12/25 07:52:43;;;;;;;52.67;27.83;;;;;;;1.38;80.18;96971.22;6268784;22;20191;-66
2021/12/25 07:55:10;;;;;;;49.63;28.30;;;;;;;1.51;80.90;96984.69;6268127;22;20523;-69
2021/12/25 07:57:37;;;;;;;45.07;27.60;;;;;;;1.70;79.62;96980.22;6268515;22;20169;-69
2021/12/25 08:00:08;;;;;;;56.70;32.53;;;;;;;1.95;79.46;96969.69;6268413;22;20172;-69
2021/12/25 08:02:38;;;;;;;56.83;31.03;;;;;;;2.16;78.87;96982.16;6268951;22;20226;-68
2021/12/25 08:05:06;;;;;;;58.27;32.17;;;;;;;2.32;78.87;96996.41;6268508;22;20175;-70
2021/12/25 08:07:33;;;;;;;58.60;32.60;;;;;;;2.42;77.78;96982.63;6268501;22;20165;-70
2021/12/25 08:10:17;;;;;;;63.97;33.73;;;;;;;2.49;77.71;96983.38;6268116;22;20490;-69
2021/12/25 08:12:47;;;;;;;59.17;31.50;;;;;;;2.75;76.85;96988.06;6268470;22;20270;-72
2021/12/25 08:15:23;;;;;;;51.13;31.00;;;;;;;2.73;76.54;96987.25;6268277;22;20190;-71
2021/12/25 08:17:51;;;;;;;57.77;32.90;;;;;;;2.80;76.49;96987.16;6241584;22;20165;-69
2021/12/25 08:20:32;;;;;;;52.10;30.20;;;;;;;2.87;76.83;96980.19;6244196;22;20164;-70
2021/12/25 08:23:19;;;;;;;53.37;33.23;;;;;;;2.82;75.89;96974.34;6268477;22;20161;-70
2021/12/25 08:26:06;;;;;;;59.63;33.97;;;;;;;2.92;75.93;96975.88;6269002;22;20164;-70
2021/12/25 08:28:33;;;;;;;52.07;31.50;;;;;;;3.04;75.39;96971.38;6240847;22;20172;-69
2021/12/25 08:31:19;;;;;;;52.07;31.63;;;;;;;3.18;75.34;96977.09;6268343;22;20175;-69
2021/12/25 08:34:22;;;;;;;112.63;54.63;;;;;;;3.27;74.89;96982.06;6267922;22;20217;-69
2021/12/25 08:37:03;;;;;;;74.07;41.53;;;;;;;3.27;75.23;96989.72;6241030;22;20633;-69
2021/12/25 08:39:31;;;;;;;60.47;34.63;;;;;;;3.19;75.03;96990.72;6268055;22;20559;-68
2021/12/25 08:42:03;;;;;;;58.80;33.57;;;;;;;3.19;75.51;96989.00;6240994;22;20193;-71
2021/12/25 08:44:40;;;;;;;56.03;32.57;;;;;;;3.19;75.98;96994.13;6268076;22;20168;-69
2021/12/25 08:47:11;;;;;;;59.17;33.93;;;;;;;3.36;75.56;96977.63;6241088;22;20160;-70
2021/12/25 08:49:41;;;;;;;63.87;34.20;;;;;;;3.50;75.07;96973.94;6268112;22;20169;-67
2021/12/25 08:52:12;;;;;;;59.10;35.13;;;;;;;3.71;74.40;96977.81;6268060;22;20269;-68
2021/12/25 08:54:40;;;;;;;54.10;32.07;;;;;;;3.79;73.82;96965.69;6267244;22;20200;-68
2021/12/25 08:57:09;;;;;;;54.97;32.97;;;;;;;3.92;74.30;96964.53;6240343;22;20188;-67
2021/12/25 08:59:38;;;;;;;58.27;34.50;;;;;;;4.19;73.59;96963.09;6267399;22;20166;-69
2021/12/25 09:02:09;;;;;;;59.10;34.60;;;;;;;4.29;73.18;96955.16;6267600;22;20223;-67
2021/12/25 09:04:38;;;;;;;52.60;34.83;;;;;;;4.41;72.53;96938.69;6267390;22;20169;-69
2021/12/25 09:07:06;;;;;;;63.37;37.23;;;;;;;4.60;72.16;96942.47;6216053;22;20233;-68
2021/12/25 09:09:34;;;;;;;59.40;36.83;;;;;;;4.76;71.77;96928.44;6267078;22;20174;-69
2021/12/25 09:12:03;;;;;;;57.63;36.00;;;;;;;4.80;71.01;96928.28;6267979;22;20161;-67
2021/12/25 09:14:31;;;;;;;56.80;35.67;;;;;;;4.90;70.49;96911.78;6267747;22;20193;-67
2021/12/25 09:16:58;;;;;;;49.77;30.03;;;;;;;5.11;70.25;96912.94;6267798;22;20629;-68
2021/12/25 09:19:25;;;;;;;51.93;30.23;;;;;;;5.32;69.10;96909.81;6267528;22;20170;-69
2021/12/25 09:21:52;;;;;;;50.33;30.97;;;;;;;5.33;70.01;96924.34;6267637;22;20250;-69
2021/12/25 09:24:20;;;;;;;44.30;28.43;;;;;;;5.22;69.08;96923.78;6267904;22;20170;-68
2021/12/25 09:26:47;;;;;;;51.77;32.47;;;;;;;5.16;69.48;96921.38;6267944;22;20186;-69
2021/12/25 09:29:14;;;;;;;50.40;31.80;;;;;;;5.07;69.75;96907.97;6267832;22;20174;-68
2021/12/25 09:31:42;;;;;;;53.90;32.63;;;;;;;4.93;70.68;96921.13;6240572;22;20178;-68
2021/12/25 09:34:09;;;;;;;52.03;32.00;;;;;;;5.05;70.47;96905.41;6267468;22;20268;-69
2021/12/25 09:36:37;;;;;;;50.30;30.17;;;;;;;5.13;70.02;96912.94;6267575;22;20583;-68
2021/12/25 09:39:05;;;;;;;47.80;30.87;;;;;;;5.27;70.23;96905.69;6240612;22;20226;-68
2021/12/25 09:41:34;;;;;;;58.10;34.20;;;;;;;5.32;69.18;96889.28;6267372;22;20213;-68
2021/12/25 09:44:03;;;;;;;60.07;34.43;;;;;;;5.49;71.68;96889.66;6239461;22;20174;-63
2021/12/25 09:46:30;;;;;;;54.50;30.47;;;;;;;5.66;72.38;96884.88;6267352;22;20165;-63
2021/12/25 09:48:58;;;;;;;42.60;27.50;;;;;;;5.70;68.76;96875.34;6267398;22;20173;-63
2021/12/25 09:51:25;;;;;;;60.73;36.13;;;;;;;5.84;67.72;96890.38;6266673;22;20234;-62
2021/12/25 09:54:14;;;;;;;61.77;35.47;;;;;;;6.00;67.90;96887.31;6266787;22;20206;-63
2021/12/25 09:56:43;;;;;;;32.90;21.57;;;;;;;6.20;66.82;96876.44;6267595;22;20162;-64
2021/12/25 09:59:13;;;;;;;38.80;21.73;;;;;;;6.26;66.21;96877.09;6267185;22;20174;-63
2021/12/25 10:01:47;;;;;;;29.50;19.23;;;;;;;6.44;65.57;96885.94;6267404;22;20163;-64
2021/12/25 10:04:41;;;;;;;35.87;19.93;;;;;;;6.51;64.92;96885.69;6266592;22;20182;-65
2021/12/25 10:07:23;;;;;;;26.53;17.40;;;;;;;6.64;65.03;96872.41;6266398;22;20168;-64
2021/12/25 10:10:10;;;;;;;25.33;16.80;;;;;;;6.75;64.06;96872.91;6239695;22;20173;-63
2021/12/25 10:12:44;;;;;;;25.27;16.30;;;;;;;6.85;64.00;96867.41;6240031;22;20182;-64
2021/12/25 10:15:14;;;;;;;29.00;15.13;;;;;;;6.60;64.64;96851.09;6266838;22;20196;-63
2021/12/25 10:17:54;;;;;;;27.07;17.90;;;;;;;6.77;64.23;96853.09;6216675;22;20179;-62
2021/12/25 10:20:26;;;;;;;22.13;14.50;;;;;;;6.75;64.47;96865.19;6269109;22;20246;-62
2021/12/25 10:23:07;;;;;;;24.73;15.63;;;;;;;6.81;63.98;96852.97;6269158;22;20164;-64
2021/12/25 10:25:55;;;;;;;21.20;14.40;;;;;;;6.74;64.82;96855.81;6268628;22;20257;-62
2021/12/25 10:28:37;;;;;;;29.60;16.73;;;;;;;6.73;65.57;96857.53;6268968;22;20260;-63
2021/12/25 10:31:18;;;;;;;25.50;16.00;;;;;;;6.74;65.80;96859.19;6269438;22;20598;-64
2021/12/25 10:33:53;;;;;;;22.73;14.60;;;;;;;6.73;66.42;96869.53;6242729;22;20223;-63
2021/12/25 10:36:27;;;;;;;28.73;16.00;;;;;;;6.94;65.97;96850.81;6266659;22;20237;-63
2021/12/25 10:39:06;;;;;;;33.87;19.50;;;;;;;7.08;66.11;96864.03;6268735;22;20181;-64
2021/12/25 10:41:38;;;;;;;31.47;19.43;;;;;;;7.07;65.71;96852.03;6268070;22;20200;-62
2021/12/25 10:44:17;;;;;;;27.23;14.87;;;;;;;7.14;69.84;96849.22;6268038;22;20174;-64
2021/12/25 10:47:20;;;;;;;40.67;21.13;;;;;;;7.17;70.29;96848.28;6268477;22;20172;-64
2021/12/25 10:49:52;;;;;;;33.80;18.37;;;;;;;7.22;66.58;96851.50;6268356;22;20665;-63
2021/12/25 10:52:29;;;;;;;36.40;21.73;;;;;;;7.08;66.08;96841.72;6269087;22;20179;-63
2021/12/25 10:55:04;;;;;;;57.13;30.00;;;;;;;7.07;65.24;96846.88;6268917;22;20192;-62
2021/12/25 10:57:36;;;;;;;50.87;26.90;;;;;;;7.15;65.42;96850.88;6268780;22;20253;-65
2021/12/25 11:00:49;;;;;;;28.80;17.23;;;;;;;7.20;64.75;96849.00;6268697;22;20215;-64
2021/12/25 11:03:52;;;;;;;22.17;12.23;;;;;;;7.30;63.35;96834.03;6245600;22;20176;-63
2021/12/25 11:06:19;;;;;;;32.70;20.33;;;;;;;7.46;62.63;96835.16;6268852;22;20190;-62
2021/12/25 11:09:26;;;;;;;24.13;15.00;;;;;;;7.64;62.34;96824.19;6241269;22;20172;-63
2021/12/25 11:16:27;;;;;;;25.37;15.93;;;;;;;7.73;62.85;96823.00;6196027;23;20666;-70
2021/12/25 11:20:17;;;;;;;29.50;18.43;;;;;;;7.80;62.43;96812.41;6202994;23;20546;-66
2021/12/25 11:23:59;;;;;;;30.40;18.30;;;;;;;7.81;62.99;96818.41;6208766;23;20548;-67
2021/12/25 11:27:04;;;;;;;30.60;17.43;;;;;;;7.83;62.70;96812.25;6207991;23;20174;-67
2021/12/25 11:29:33;;;;;;;30.30;17.47;;;;;;;7.90;63.82;96820.59;6207514;23;20186;-61
2021/12/25 11:32:04;;;;;;;25.00;14.87;;;;;;;7.88;62.38;96818.09;6209324;23;20609;-60
2021/12/25 11:34:32;;;;;;;25.07;15.73;;;;;;;7.89;62.25;96824.91;6207088;23;20201;-61
2021/12/25 11:37:00;;;;;;;25.97;15.50;;;;;;;8.00;63.02;96821.91;6209262;23;20170;-64
2021/12/25 11:39:29;;;;;;;23.60;13.67;;;;;;;8.14;61.45;96819.63;6207081;23;20682;-64
2021/12/25 11:42:03;;;;;;;26.10;14.80;;;;;;;8.13;61.59;96823.97;6208626;23;20613;-70
2021/12/25 11:44:45;;;;;;;32.70;19.03;;;;;;;7.93;62.38;96821.31;6181386;23;20515;-68
2021/12/25 11:47:39;;;;;;;49.33;26.30;;;;;;;8.03;61.68;96816.66;6156053;23;20169;-67
2021/12/25 11:50:13;;;;;;;23.60;12.70;;;;;;;8.16;60.43;96810.13;6209042;23;20172;-63
2021/12/25 11:52:52;;;;;;;17.80;10.47;;;;;;;8.27;60.33;96810.56;6207823;23;20565;-66
2021/12/25 11:58:35;;;;;;;9.97;5.90;;;;;;;8.30;60.01;96799.28;6208465;23;20185;-68
2021/12/25 12:01:24;;;;;;;10.70;7.00;;;;;;;8.30;60.42;96792.38;6207166;23;20613;-66
2021/12/25 12:03:55;;;;;;;15.33;8.87;;;;;;;8.38;60.65;96792.06;6181143;23;20166;-65
2021/12/25 12:06:48;;;;;;;19.87;10.87;;;;;;;8.40;60.65;96798.00;6208562;23;20170;-65
2021/12/25 12:09:51;;;;;;;14.40;10.67;;;;;;;8.29;61.25;96784.69;6179398;23;20176;-67
2021/12/25 12:12:36;;;;;;;20.10;10.93;;;;;;;8.28;61.59;96789.03;6207481;23;20161;-67
2021/12/25 12:15:23;;;;;;;17.13;12.10;;;;;;;8.26;60.88;96785.69;6207915;23;20202;-68
2021/12/25 12:18:34;;;;;;;21.00;13.57;;;;;;;8.26;61.80;96777.09;6206956;23;20166;-66
2021/12/25 12:21:11;;;;;;;22.73;13.90;;;;;;;8.26;61.09;96774.50;6192212;23;20248;-66
2021/12/25 12:26:45;;;;;;;23.33;15.17;;;;;;;8.34;61.28;96770.72;6140936;23;20232;-65
2021/12/25 12:29:38;;;;;;;23.63;14.47;;;;;;;8.47;61.23;96776.22;6208375;23;20166;-65
2021/12/25 12:33:20;;;;;;;32.33;17.97;;;;;;;8.51;61.57;96773.41;6208049;23;20174;-62
2021/12/25 12:36:22;;;;;;;25.20;13.97;;;;;;;8.50;62.25;96786.38;6207723;23;20552;-63
2021/12/25 12:38:54;;;;;;;22.20;12.73;;;;;;;8.55;61.67;96781.88;6206355;23;20269;-65
2021/12/25 12:41:34;;;;;;;18.33;11.87;;;;;;;8.50;61.67;96766.59;6208919;23;20557;-61
2021/12/25 12:44:38;;;;;;;24.43;13.07;;;;;;;8.54;62.52;96764.72;6206687;23;20216;-70
2021/12/25 12:47:14;;;;;;;24.97;11.23;;;;;;;8.59;62.15;96766.22;6151154;23;20279;-64
2021/12/25 12:49:56;;;;;;;19.17;10.77;;;;;;;8.60;61.95;96761.88;6182931;23;20556;-68
2021/12/25 12:53:18;;;;;;;20.10;14.27;;;;;;;8.48;63.61;96763.25;6173631;23;20260;-64
2021/12/25 12:56:02;;;;;;;19.23;12.87;;;;;;;8.44;63.52;96774.59;6206718;23;20193;-64
2021/12/25 12:58:29;;;;;;;23.07;14.57;;;;;;;8.35;64.27;96766.38;6207785;23;20177;-65
2021/12/25 13:01:08;;;;;;;27.03;14.53;;;;;;;8.36;63.22;96757.75;6206315;23;20224;-62
2021/12/25 13:03:36;;;;;;;20.17;14.50;;;;;;;8.36;64.02;96770.66;6207670;23;20174;-62
2021/12/25 13:06:11;;;;;;;27.83;17.70;;;;;;;8.34;64.35;96769.88;6207357;23;20216;-63
2021/12/25 13:08:40;;;;;;;20.27;12.97;;;;;;;8.30;64.32;96776.06;6207022;23;20166;-62
2021/12/25 13:11:21;;;;;;;19.63;12.93;;;;;;;8.23;64.03;96768.53;6208557;23;20162;-63
2021/12/25 13:14:00;;;;;;;26.73;17.27;;;;;;;8.25;64.73;96776.25;6205675;23;21008;-62
2021/12/25 13:16:39;;;;;;;17.17;11.90;;;;;;;8.20;63.45;96780.72;6208455;23;20172;-65
2021/12/25 13:19:07;;;;;;;19.20;12.73;;;;;;;8.14;63.96;96783.53;6207424;23;20687;-63
2021/12/25 13:21:36;;;;;;;18.67;12.77;;;;;;;8.07;64.17;96788.13;6207800;23;20189;-64
2021/12/25 13:24:13;;;;;;;22.33;13.87;;;;;;;8.09;64.16;96778.59;6208085;23;20178;-65
2021/12/25 13:26:48;;;;;;;21.70;13.70;;;;;;;8.05;63.82;96783.91;6179994;23;20173;-67
2021/12/25 13:29:19;;;;;;;21.10;12.37;;;;;;;8.03;64.04;96790.88;6208203;23;20554;-64